sensor_id;sensor_type;location;lat;lon;timestamp;P1;durP1;ratioP1;P2;durP2;ratioP2
26578;SDS011;14227;47.674;19.320;2023-07-28T00:00:42;5.13;;;2.90;;
26578;SDS011;14227;47.674;19.320;2023-07-28T00:03:09;3.40;;;2.55;;
26578;SDS011;14227;47.674;19.320;2023-07-28T00:05:35;4.97;;;2.55;;
26578;SDS011;14227;47.674;19.320;2023-07-28T00:08:02;4.75;;;2.97;;
26578;SDS011;14227;47.674;19.320;2023-07-28T00:10:27;6.00;;;3.30;;
26578;SDS011;14227;47.674;19.320;2023-07-28T00:12:53;6.32;;;2.78;;
26578;SDS011;14227;47.674;19.320;2023-07-28T00:15:19;3.40;;;2.53;;
26578;SDS011;14227;47.674;19.320;2023-07-28T00:17:44;4.00;;;2.75;;
26578;SDS011;14227;47.674;19.320;2023-07-28T00:20:10;3.47;;;2.65;;
26578;SDS011;14227;47.674;19.320;2023-07-28T00:22:36;4.72;;;2.78;;
26578;SDS011;14227;47.674;19.320;2023-07-28T00:25:02;3.78;;;2.40;;
26578;SDS011;14227;47.674;19.320;2023-07-28T00:27:28;4.13;;;2.83;;
26578;SDS011;14227;47.674;19.320;2023-07-28T00:29:53;6.30;;;3.03;;
26578;SDS011;14227;47.674;19.320;2023-07-28T00:32:19;3.13;;;2.40;;
26578;SDS011;14227;47.674;19.320;2023-07-28T00:34:45;4.32;;;2.70;;
26578;SDS011;14227;47.674;19.320;2023-07-28T00:37:11;5.00;;;2.80;;
26578;SDS011;14227;47.674;19.320;2023-07-28T00:39:37;2.95;;;2.38;;
26578;SDS011;14227;47.674;19.320;2023-07-28T00:42:02;3.85;;;2.30;;
26578;SDS011;14227;47.674;19.320;2023-07-28T00:44:28;4.30;;;2.70;;
26578;SDS011;14227;47.674;19.320;2023-07-28T00:46:54;6.68;;;2.72;;
26578;SDS011;14227;47.674;19.320;2023-07-28T00:49:21;3.53;;;2.47;;
26578;SDS011;14227;47.674;19.320;2023-07-28T00:51:46;2.90;;;2.47;;
26578;SDS011;14227;47.674;19.320;2023-07-28T00:54:14;6.78;;;2.70;;
26578;SDS011;14227;47.674;19.320;2023-07-28T00:56:40;8.48;;;2.58;;
26578;SDS011;14227;47.674;19.320;2023-07-28T00:59:05;4.68;;;2.60;;
26578;SDS011;14227;47.674;19.320;2023-07-28T01:01:31;3.45;;;2.70;;
26578;SDS011;14227;47.674;19.320;2023-07-28T01:03:57;5.90;;;2.78;;
26578;SDS011;14227;47.674;19.320;2023-07-28T01:06:29;3.80;;;2.70;;
26578;SDS011;14227;47.674;19.320;2023-07-28T01:09:06;5.95;;;2.65;;
26578;SDS011;14227;47.674;19.320;2023-07-28T01:11:36;6.68;;;2.42;;
26578;SDS011;14227;47.674;19.320;2023-07-28T01:14:02;3.95;;;2.53;;
26578;SDS011;14227;47.674;19.320;2023-07-28T01:16:28;3.97;;;2.58;;
26578;SDS011;14227;47.674;19.320;2023-07-28T01:18:53;4.13;;;2.60;;
26578;SDS011;14227;47.674;19.320;2023-07-28T01:21:25;5.55;;;2.60;;
26578;SDS011;14227;47.674;19.320;2023-07-28T01:24:13;4.93;;;2.33;;
26578;SDS011;14227;47.674;19.320;2023-07-28T01:26:49;2.53;;;2.13;;
26578;SDS011;14227;47.674;19.320;2023-07-28T01:29:16;3.05;;;2.30;;
26578;SDS011;14227;47.674;19.320;2023-07-28T01:31:45;6.50;;;2.55;;
26578;SDS011;14227;47.674;19.320;2023-07-28T01:34:12;3.30;;;2.35;;
26578;SDS011;14227;47.674;19.320;2023-07-28T01:36:38;4.22;;;2.38;;
26578;SDS011;14227;47.674;19.320;2023-07-28T01:39:04;6.63;;;2.17;;
26578;SDS011;14227;47.674;19.320;2023-07-28T01:41:29;3.25;;;2.47;;
26578;SDS011;14227;47.674;19.320;2023-07-28T01:43:55;3.30;;;2.25;;
26578;SDS011;14227;47.674;19.320;2023-07-28T01:46:21;5.07;;;2.33;;
26578;SDS011;14227;47.674;19.320;2023-07-28T01:48:47;3.70;;;2.50;;
26578;SDS011;14227;47.674;19.320;2023-07-28T01:51:13;3.70;;;2.28;;
26578;SDS011;14227;47.674;19.320;2023-07-28T01:53:38;3.92;;;2.47;;
26578;SDS011;14227;47.674;19.320;2023-07-28T01:56:04;4.25;;;2.30;;
26578;SDS011;14227;47.674;19.320;2023-07-28T01:58:30;3.72;;;2.47;;
26578;SDS011;14227;47.674;19.320;2023-07-28T02:00:55;4.40;;;2.92;;
26578;SDS011;14227;47.674;19.320;2023-07-28T02:03:21;8.25;;;2.58;;
26578;SDS011;14227;47.674;19.320;2023-07-28T02:05:47;3.33;;;2.58;;
26578;SDS011;14227;47.674;19.320;2023-07-28T02:08:13;6.18;;;2.67;;
26578;SDS011;14227;47.674;19.320;2023-07-28T02:10:39;3.17;;;2.50;;
26578;SDS011;14227;47.674;19.320;2023-07-28T02:13:05;3.35;;;2.00;;
26578;SDS011;14227;47.674;19.320;2023-07-28T02:15:30;3.60;;;2.58;;
26578;SDS011;14227;47.674;19.320;2023-07-28T02:17:56;3.25;;;2.40;;
26578;SDS011;14227;47.674;19.320;2023-07-28T02:20:22;3.38;;;2.40;;
26578;SDS011;14227;47.674;19.320;2023-07-28T02:22:47;5.18;;;2.83;;
26578;SDS011;14227;47.674;19.320;2023-07-28T02:25:13;3.83;;;2.60;;
26578;SDS011;14227;47.674;19.320;2023-07-28T02:27:39;3.05;;;2.50;;
26578;SDS011;14227;47.674;19.320;2023-07-28T02:30:05;3.60;;;2.47;;
26578;SDS011;14227;47.674;19.320;2023-07-28T02:32:31;6.53;;;2.63;;
26578;SDS011;14227;47.674;19.320;2023-07-28T02:34:57;5.78;;;3.00;;
26578;SDS011;14227;47.674;19.320;2023-07-28T02:37:23;6.80;;;2.75;;
26578;SDS011;14227;47.674;19.320;2023-07-28T02:39:50;2.90;;;2.53;;
26578;SDS011;14227;47.674;19.320;2023-07-28T02:42:15;6.57;;;2.60;;
26578;SDS011;14227;47.674;19.320;2023-07-28T02:44:41;3.83;;;2.72;;
26578;SDS011;14227;47.674;19.320;2023-07-28T02:47:07;5.80;;;2.70;;
26578;SDS011;14227;47.674;19.320;2023-07-28T02:49:33;3.40;;;2.33;;
26578;SDS011;14227;47.674;19.320;2023-07-28T02:51:58;5.57;;;2.83;;
26578;SDS011;14227;47.674;19.320;2023-07-28T02:54:24;4.88;;;2.75;;
26578;SDS011;14227;47.674;19.320;2023-07-28T02:56:50;5.03;;;2.88;;
26578;SDS011;14227;47.674;19.320;2023-07-28T02:59:17;5.03;;;2.60;;
26578;SDS011;14227;47.674;19.320;2023-07-28T03:01:43;2.75;;;2.33;;
26578;SDS011;14227;47.674;19.320;2023-07-28T03:04:08;5.50;;;2.75;;
26578;SDS011;14227;47.674;19.320;2023-07-28T03:06:34;3.70;;;3.10;;
26578;SDS011;14227;47.674;19.320;2023-07-28T03:09:00;9.05;;;3.78;;
26578;SDS011;14227;47.674;19.320;2023-07-28T03:11:25;7.25;;;2.60;;
26578;SDS011;14227;47.674;19.320;2023-07-28T03:13:51;3.78;;;2.65;;
26578;SDS011;14227;47.674;19.320;2023-07-28T03:16:16;4.68;;;2.50;;
26578;SDS011;14227;47.674;19.320;2023-07-28T03:18:42;5.50;;;2.95;;
26578;SDS011;14227;47.674;19.320;2023-07-28T03:21:08;4.93;;;2.58;;
26578;SDS011;14227;47.674;19.320;2023-07-28T03:23:34;5.03;;;2.58;;
26578;SDS011;14227;47.674;19.320;2023-07-28T03:26:00;3.92;;;2.95;;
26578;SDS011;14227;47.674;19.320;2023-07-28T03:28:25;5.10;;;2.90;;
26578;SDS011;14227;47.674;19.320;2023-07-28T03:30:51;3.60;;;2.60;;
26578;SDS011;14227;47.674;19.320;2023-07-28T03:33:17;5.20;;;2.85;;
26578;SDS011;14227;47.674;19.320;2023-07-28T03:35:42;4.75;;;2.53;;
26578;SDS011;14227;47.674;19.320;2023-07-28T03:38:08;4.30;;;2.65;;
26578;SDS011;14227;47.674;19.320;2023-07-28T03:40:34;4.38;;;2.40;;
26578;SDS011;14227;47.674;19.320;2023-07-28T03:43:00;4.97;;;2.78;;
26578;SDS011;14227;47.674;19.320;2023-07-28T03:45:25;5.35;;;2.35;;
26578;SDS011;14227;47.674;19.320;2023-07-28T03:47:51;6.20;;;2.33;;
26578;SDS011;14227;47.674;19.320;2023-07-28T03:50:17;4.03;;;2.33;;
26578;SDS011;14227;47.674;19.320;2023-07-28T03:52:43;5.40;;;2.42;;
26578;SDS011;14227;47.674;19.320;2023-07-28T03:55:08;4.82;;;2.53;;
26578;SDS011;14227;47.674;19.320;2023-07-28T03:57:34;3.45;;;2.25;;
26578;SDS011;14227;47.674;19.320;2023-07-28T03:59:59;4.43;;;2.10;;
26578;SDS011;14227;47.674;19.320;2023-07-28T04:02:25;2.67;;;2.20;;
26578;SDS011;14227;47.674;19.320;2023-07-28T04:04:54;3.47;;;2.15;;
26578;SDS011;14227;47.674;19.320;2023-07-28T04:07:21;4.60;;;2.22;;
26578;SDS011;14227;47.674;19.320;2023-07-28T04:09:46;5.07;;;2.25;;
26578;SDS011;14227;47.674;19.320;2023-07-28T04:12:12;5.53;;;2.38;;
26578;SDS011;14227;47.674;19.320;2023-07-28T04:14:38;4.30;;;2.13;;
26578;SDS011;14227;47.674;19.320;2023-07-28T04:17:04;5.68;;;2.55;;
26578;SDS011;14227;47.674;19.320;2023-07-28T04:19:29;5.05;;;2.45;;
26578;SDS011;14227;47.674;19.320;2023-07-28T04:21:59;5.72;;;2.08;;
26578;SDS011;14227;47.674;19.320;2023-07-28T04:24:25;6.80;;;2.25;;
26578;SDS011;14227;47.674;19.320;2023-07-28T04:26:51;5.65;;;2.15;;
26578;SDS011;14227;47.674;19.320;2023-07-28T04:29:16;9.15;;;2.33;;
26578;SDS011;14227;47.674;19.320;2023-07-28T04:31:42;2.78;;;2.17;;
26578;SDS011;14227;47.674;19.320;2023-07-28T04:34:08;3.75;;;2.45;;
26578;SDS011;14227;47.674;19.320;2023-07-28T04:36:33;6.85;;;2.33;;
26578;SDS011;14227;47.674;19.320;2023-07-28T04:38:59;4.05;;;2.15;;
26578;SDS011;14227;47.674;19.320;2023-07-28T04:41:25;8.70;;;2.53;;
26578;SDS011;14227;47.674;19.320;2023-07-28T04:43:50;2.92;;;1.98;;
26578;SDS011;14227;47.674;19.320;2023-07-28T04:46:16;6.72;;;2.75;;
26578;SDS011;14227;47.674;19.320;2023-07-28T04:48:42;8.48;;;2.33;;
26578;SDS011;14227;47.674;19.320;2023-07-28T04:51:07;5.70;;;2.10;;
26578;SDS011;14227;47.674;19.320;2023-07-28T04:53:33;5.85;;;2.33;;
26578;SDS011;14227;47.674;19.320;2023-07-28T04:55:59;6.65;;;2.40;;
26578;SDS011;14227;47.674;19.320;2023-07-28T04:58:25;3.58;;;2.20;;
26578;SDS011;14227;47.674;19.320;2023-07-28T05:00:50;5.75;;;2.60;;
26578;SDS011;14227;47.674;19.320;2023-07-28T05:03:16;6.75;;;2.70;;
26578;SDS011;14227;47.674;19.320;2023-07-28T05:05:45;5.00;;;2.50;;
26578;SDS011;14227;47.674;19.320;2023-07-28T05:08:10;5.63;;;2.78;;
26578;SDS011;14227;47.674;19.320;2023-07-28T05:10:36;9.35;;;2.40;;
26578;SDS011;14227;47.674;19.320;2023-07-28T05:13:02;3.78;;;2.15;;
26578;SDS011;14227;47.674;19.320;2023-07-28T05:15:29;7.00;;;2.17;;
26578;SDS011;14227;47.674;19.320;2023-07-28T05:17:55;4.78;;;2.13;;
26578;SDS011;14227;47.674;19.320;2023-07-28T05:20:21;6.30;;;2.08;;
26578;SDS011;14227;47.674;19.320;2023-07-28T05:22:47;6.35;;;2.17;;
26578;SDS011;14227;47.674;19.320;2023-07-28T05:25:13;2.65;;;2.40;;
26578;SDS011;14227;47.674;19.320;2023-07-28T05:27:39;3.50;;;1.80;;
26578;SDS011;14227;47.674;19.320;2023-07-28T05:30:05;5.60;;;1.83;;
26578;SDS011;14227;47.674;19.320;2023-07-28T05:32:31;4.20;;;2.40;;
26578;SDS011;14227;47.674;19.320;2023-07-28T05:34:57;4.53;;;2.22;;
26578;SDS011;14227;47.674;19.320;2023-07-28T05:37:23;4.75;;;2.08;;
26578;SDS011;14227;47.674;19.320;2023-07-28T05:39:49;5.53;;;2.47;;
26578;SDS011;14227;47.674;19.320;2023-07-28T05:42:16;4.80;;;2.25;;
26578;SDS011;14227;47.674;19.320;2023-07-28T05:44:42;8.38;;;2.45;;
26578;SDS011;14227;47.674;19.320;2023-07-28T05:47:07;3.90;;;2.10;;
26578;SDS011;14227;47.674;19.320;2023-07-28T05:49:34;5.32;;;2.33;;
26578;SDS011;14227;47.674;19.320;2023-07-28T05:52:00;7.78;;;2.30;;
26578;SDS011;14227;47.674;19.320;2023-07-28T05:54:26;2.15;;;1.73;;
26578;SDS011;14227;47.674;19.320;2023-07-28T05:56:51;4.78;;;2.30;;
26578;SDS011;14227;47.674;19.320;2023-07-28T05:59:17;3.55;;;2.28;;
26578;SDS011;14227;47.674;19.320;2023-07-28T06:01:43;6.28;;;2.30;;
26578;SDS011;14227;47.674;19.320;2023-07-28T06:04:08;5.50;;;2.33;;
26578;SDS011;14227;47.674;19.320;2023-07-28T06:06:34;6.03;;;2.42;;
26578;SDS011;14227;47.674;19.320;2023-07-28T06:08:59;4.30;;;2.40;;
26578;SDS011;14227;47.674;19.320;2023-07-28T06:11:25;6.55;;;2.67;;
26578;SDS011;14227;47.674;19.320;2023-07-28T06:13:51;3.58;;;2.40;;
26578;SDS011;14227;47.674;19.320;2023-07-28T06:16:17;4.68;;;2.75;;
26578;SDS011;14227;47.674;19.320;2023-07-28T06:18:42;3.97;;;2.30;;
26578;SDS011;14227;47.674;19.320;2023-07-28T06:21:08;7.93;;;2.50;;
26578;SDS011;14227;47.674;19.320;2023-07-28T06:23:34;6.57;;;2.80;;
26578;SDS011;14227;47.674;19.320;2023-07-28T06:26:00;9.15;;;2.30;;
26578;SDS011;14227;47.674;19.320;2023-07-28T06:28:26;9.18;;;2.50;;
26578;SDS011;14227;47.674;19.320;2023-07-28T06:30:55;6.95;;;2.25;;
26578;SDS011;14227;47.674;19.320;2023-07-28T06:33:21;7.15;;;2.17;;
26578;SDS011;14227;47.674;19.320;2023-07-28T06:35:47;8.68;;;2.13;;
26578;SDS011;14227;47.674;19.320;2023-07-28T06:38:13;3.25;;;2.10;;
26578;SDS011;14227;47.674;19.320;2023-07-28T06:40:38;2.45;;;2.20;;
26578;SDS011;14227;47.674;19.320;2023-07-28T06:43:04;3.90;;;2.10;;
26578;SDS011;14227;47.674;19.320;2023-07-28T06:45:32;5.50;;;2.15;;
26578;SDS011;14227;47.674;19.320;2023-07-28T06:47:58;5.10;;;2.10;;
26578;SDS011;14227;47.674;19.320;2023-07-28T06:50:24;5.82;;;2.15;;
26578;SDS011;14227;47.674;19.320;2023-07-28T06:52:50;5.45;;;2.13;;
26578;SDS011;14227;47.674;19.320;2023-07-28T06:55:16;6.68;;;2.00;;
26578;SDS011;14227;47.674;19.320;2023-07-28T06:57:43;5.10;;;2.10;;
26578;SDS011;14227;47.674;19.320;2023-07-28T07:00:09;4.32;;;1.80;;
26578;SDS011;14227;47.674;19.320;2023-07-28T07:02:35;7.85;;;2.30;;
26578;SDS011;14227;47.674;19.320;2023-07-28T07:05:04;11.13;;;2.30;;
26578;SDS011;14227;47.674;19.320;2023-07-28T07:07:33;5.00;;;2.53;;
26578;SDS011;14227;47.674;19.320;2023-07-28T07:09:59;5.43;;;2.33;;
26578;SDS011;14227;47.674;19.320;2023-07-28T07:12:24;7.68;;;2.13;;
26578;SDS011;14227;47.674;19.320;2023-07-28T07:14:51;8.50;;;2.40;;
26578;SDS011;14227;47.674;19.320;2023-07-28T07:17:16;6.28;;;2.63;;
26578;SDS011;14227;47.674;19.320;2023-07-28T07:19:42;3.03;;;2.03;;
26578;SDS011;14227;47.674;19.320;2023-07-28T07:22:08;5.68;;;2.42;;
26578;SDS011;14227;47.674;19.320;2023-07-28T07:24:34;4.50;;;2.45;;
26578;SDS011;14227;47.674;19.320;2023-07-28T07:27:00;3.65;;;2.17;;
26578;SDS011;14227;47.674;19.320;2023-07-28T07:29:26;6.45;;;2.03;;
26578;SDS011;14227;47.674;19.320;2023-07-28T07:31:51;9.15;;;2.35;;
26578;SDS011;14227;47.674;19.320;2023-07-28T07:34:21;7.78;;;2.40;;
26578;SDS011;14227;47.674;19.320;2023-07-28T07:36:48;4.65;;;1.85;;
26578;SDS011;14227;47.674;19.320;2023-07-28T07:39:14;7.55;;;2.53;;
26578;SDS011;14227;47.674;19.320;2023-07-28T07:41:40;6.65;;;2.22;;
26578;SDS011;14227;47.674;19.320;2023-07-28T07:44:05;7.75;;;2.60;;
26578;SDS011;14227;47.674;19.320;2023-07-28T07:46:31;6.38;;;2.20;;
26578;SDS011;14227;47.674;19.320;2023-07-28T07:48:57;3.90;;;2.38;;
26578;SDS011;14227;47.674;19.320;2023-07-28T07:51:23;5.03;;;2.22;;
26578;SDS011;14227;47.674;19.320;2023-07-28T07:53:49;7.68;;;2.05;;
26578;SDS011;14227;47.674;19.320;2023-07-28T07:56:14;9.38;;;2.13;;
26578;SDS011;14227;47.674;19.320;2023-07-28T07:58:40;3.33;;;2.33;;
26578;SDS011;14227;47.674;19.320;2023-07-28T08:01:06;4.68;;;2.38;;
26578;SDS011;14227;47.674;19.320;2023-07-28T08:03:31;5.68;;;2.17;;
26578;SDS011;14227;47.674;19.320;2023-07-28T08:05:57;5.70;;;2.28;;
26578;SDS011;14227;47.674;19.320;2023-07-28T08:08:23;2.70;;;2.00;;
26578;SDS011;14227;47.674;19.320;2023-07-28T08:10:49;4.57;;;2.25;;
26578;SDS011;14227;47.674;19.320;2023-07-28T08:13:16;4.65;;;2.70;;
26578;SDS011;14227;47.674;19.320;2023-07-28T08:15:45;4.75;;;2.83;;
26578;SDS011;14227;47.674;19.320;2023-07-28T08:18:11;8.43;;;2.00;;
26578;SDS011;14227;47.674;19.320;2023-07-28T08:20:37;4.85;;;2.45;;
26578;SDS011;14227;47.674;19.320;2023-07-28T08:23:03;6.47;;;2.33;;
26578;SDS011;14227;47.674;19.320;2023-07-28T08:25:29;3.83;;;2.20;;
26578;SDS011;14227;47.674;19.320;2023-07-28T08:27:55;4.15;;;2.13;;
26578;SDS011;14227;47.674;19.320;2023-07-28T08:30:20;6.10;;;2.13;;
26578;SDS011;14227;47.674;19.320;2023-07-28T08:32:46;7.28;;;1.98;;
26578;SDS011;14227;47.674;19.320;2023-07-28T08:35:12;5.35;;;1.95;;
26578;SDS011;14227;47.674;19.320;2023-07-28T08:37:38;9.77;;;2.30;;
26578;SDS011;14227;47.674;19.320;2023-07-28T08:40:04;8.35;;;1.90;;
26578;SDS011;14227;47.674;19.320;2023-07-28T08:42:31;4.18;;;2.05;;
26578;SDS011;14227;47.674;19.320;2023-07-28T08:45:02;10.50;;;1.92;;
26578;SDS011;14227;47.674;19.320;2023-07-28T08:47:33;8.52;;;1.80;;
26578;SDS011;14227;47.674;19.320;2023-07-28T08:49:59;3.40;;;2.00;;
26578;SDS011;14227;47.674;19.320;2023-07-28T08:52:25;2.42;;;1.90;;
26578;SDS011;14227;47.674;19.320;2023-07-28T08:54:51;4.97;;;2.00;;
26578;SDS011;14227;47.674;19.320;2023-07-28T08:57:17;5.20;;;1.77;;
26578;SDS011;14227;47.674;19.320;2023-07-28T08:59:44;4.22;;;1.40;;
26578;SDS011;14227;47.674;19.320;2023-07-28T09:02:14;7.75;;;1.77;;
26578;SDS011;14227;47.674;19.320;2023-07-28T09:04:47;2.70;;;1.52;;
26578;SDS011;14227;47.674;19.320;2023-07-28T09:07:13;2.47;;;1.60;;
26578;SDS011;14227;47.674;19.320;2023-07-28T09:09:40;8.90;;;1.80;;
26578;SDS011;14227;47.674;19.320;2023-07-28T09:12:06;8.90;;;1.77;;
26578;SDS011;14227;47.674;19.320;2023-07-28T09:14:34;9.35;;;1.80;;
26578;SDS011;14227;47.674;19.320;2023-07-28T09:17:11;4.00;;;1.65;;
26578;SDS011;14227;47.674;19.320;2023-07-28T09:19:54;10.52;;;1.90;;
26578;SDS011;14227;47.674;19.320;2023-07-28T09:22:22;6.40;;;1.65;;
26578;SDS011;14227;47.674;19.320;2023-07-28T09:24:48;20.45;;;2.47;;
26578;SDS011;14227;47.674;19.320;2023-07-28T09:27:22;17.85;;;2.10;;
26578;SDS011;14227;47.674;19.320;2023-07-28T09:29:53;7.45;;;1.77;;
26578;SDS011;14227;47.674;19.320;2023-07-28T09:32:26;4.22;;;1.35;;
26578;SDS011;14227;47.674;19.320;2023-07-28T09:35:09;6.45;;;1.60;;
26578;SDS011;14227;47.674;19.320;2023-07-28T09:37:38;6.20;;;1.85;;
26578;SDS011;14227;47.674;19.320;2023-07-28T09:40:09;7.07;;;1.65;;
26578;SDS011;14227;47.674;19.320;2023-07-28T09:42:37;6.38;;;1.70;;
26578;SDS011;14227;47.674;19.320;2023-07-28T09:45:06;6.35;;;1.80;;
26578;SDS011;14227;47.674;19.320;2023-07-28T09:47:35;5.68;;;2.58;;
26578;SDS011;14227;47.674;19.320;2023-07-28T09:50:05;2.92;;;1.60;;
26578;SDS011;14227;47.674;19.320;2023-07-28T09:52:41;8.10;;;1.93;;
26578;SDS011;14227;47.674;19.320;2023-07-28T09:55:09;7.97;;;1.95;;
26578;SDS011;14227;47.674;19.320;2023-07-28T09:57:41;8.77;;;2.20;;
26578;SDS011;14227;47.674;19.320;2023-07-28T10:00:11;4.95;;;2.08;;
26578;SDS011;14227;47.674;19.320;2023-07-28T10:02:39;4.45;;;1.52;;
26578;SDS011;14227;47.674;19.320;2023-07-28T10:05:06;6.43;;;1.58;;
26578;SDS011;14227;47.674;19.320;2023-07-28T10:07:33;5.82;;;1.80;;
26578;SDS011;14227;47.674;19.320;2023-07-28T10:10:01;2.00;;;1.50;;
26578;SDS011;14227;47.674;19.320;2023-07-28T10:12:33;4.65;;;1.65;;
26578;SDS011;14227;47.674;19.320;2023-07-28T10:15:14;2.22;;;1.33;;
26578;SDS011;14227;47.674;19.320;2023-07-28T10:17:54;6.88;;;1.60;;
26578;SDS011;14227;47.674;19.320;2023-07-28T10:20:26;2.80;;;1.60;;
26578;SDS011;14227;47.674;19.320;2023-07-28T10:23:03;8.02;;;1.48;;
26578;SDS011;14227;47.674;19.320;2023-07-28T10:25:40;8.45;;;1.60;;
26578;SDS011;14227;47.674;19.320;2023-07-28T10:30:56;3.08;;;1.20;;
26578;SDS011;14227;47.674;19.320;2023-07-28T10:33:36;3.72;;;1.55;;
26578;SDS011;14227;47.674;19.320;2023-07-28T10:36:18;7.93;;;1.48;;
26578;SDS011;14227;47.674;19.320;2023-07-28T10:41:34;9.52;;;1.60;;
26578;SDS011;14227;47.674;19.320;2023-07-28T10:44:00;7.13;;;1.63;;
26578;SDS011;14227;47.674;19.320;2023-07-28T10:46:27;4.70;;;1.60;;
26578;SDS011;14227;47.674;19.320;2023-07-28T10:48:53;5.53;;;1.55;;
26578;SDS011;14227;47.674;19.320;2023-07-28T10:51:22;3.40;;;1.50;;
26578;SDS011;14227;47.674;19.320;2023-07-28T10:53:55;3.30;;;1.73;;
26578;SDS011;14227;47.674;19.320;2023-07-28T10:56:21;3.45;;;1.40;;
26578;SDS011;14227;47.674;19.320;2023-07-28T10:58:47;4.20;;;1.50;;
26578;SDS011;14227;47.674;19.320;2023-07-28T11:01:34;4.60;;;1.50;;
26578;SDS011;14227;47.674;19.320;2023-07-28T11:06:46;2.97;;;1.38;;
26578;SDS011;14227;47.674;19.320;2023-07-28T11:09:13;4.68;;;1.40;;
26578;SDS011;14227;47.674;19.320;2023-07-28T11:11:41;6.60;;;1.40;;
26578;SDS011;14227;47.674;19.320;2023-07-28T11:14:08;11.52;;;2.38;;
26578;SDS011;14227;47.674;19.320;2023-07-28T11:16:38;5.13;;;1.35;;
26578;SDS011;14227;47.674;19.320;2023-07-28T11:19:10;4.47;;;1.60;;
26578;SDS011;14227;47.674;19.320;2023-07-28T11:21:37;3.20;;;1.40;;
26578;SDS011;14227;47.674;19.320;2023-07-28T11:24:04;3.65;;;1.42;;
26578;SDS011;14227;47.674;19.320;2023-07-28T11:26:30;7.43;;;1.35;;
26578;SDS011;14227;47.674;19.320;2023-07-28T11:28:56;7.13;;;1.95;;
26578;SDS011;14227;47.674;19.320;2023-07-28T11:31:24;1.50;;;1.40;;
26578;SDS011;14227;47.674;19.320;2023-07-28T11:33:51;3.63;;;1.50;;
26578;SDS011;14227;47.674;19.320;2023-07-28T11:36:24;7.55;;;1.52;;
26578;SDS011;14227;47.674;19.320;2023-07-28T11:38:52;5.20;;;1.80;;
26578;SDS011;14227;47.674;19.320;2023-07-28T11:41:19;4.00;;;1.42;;
26578;SDS011;14227;47.674;19.320;2023-07-28T11:43:49;4.13;;;1.63;;
26578;SDS011;14227;47.674;19.320;2023-07-28T11:49:20;7.30;;;1.73;;
26578;SDS011;14227;47.674;19.320;2023-07-28T11:51:50;7.70;;;1.60;;
26578;SDS011;14227;47.674;19.320;2023-07-28T11:54:18;7.82;;;1.67;;
26578;SDS011;14227;47.674;19.320;2023-07-28T11:56:47;9.50;;;1.80;;
26578;SDS011;14227;47.674;19.320;2023-07-28T11:59:20;3.92;;;1.33;;
26578;SDS011;14227;47.674;19.320;2023-07-28T12:01:56;7.18;;;1.75;;
26578;SDS011;14227;47.674;19.320;2023-07-28T12:04:24;3.80;;;1.42;;
26578;SDS011;14227;47.674;19.320;2023-07-28T12:07:00;6.60;;;1.40;;
26578;SDS011;14227;47.674;19.320;2023-07-28T12:09:28;1.58;;;1.38;;
26578;SDS011;14227;47.674;19.320;2023-07-28T12:11:54;3.78;;;1.40;;
26578;SDS011;14227;47.674;19.320;2023-07-28T12:14:32;6.68;;;1.73;;
26578;SDS011;14227;47.674;19.320;2023-07-28T12:16:59;5.20;;;1.83;;
26578;SDS011;14227;47.674;19.320;2023-07-28T12:19:25;3.30;;;1.25;;
26578;SDS011;14227;47.674;19.320;2023-07-28T12:21:51;3.88;;;1.33;;
26578;SDS011;14227;47.674;19.320;2023-07-28T12:24:17;4.95;;;1.70;;
26578;SDS011;14227;47.674;19.320;2023-07-28T12:26:43;10.63;;;2.53;;
26578;SDS011;14227;47.674;19.320;2023-07-28T12:29:11;2.67;;;1.35;;
26578;SDS011;14227;47.674;19.320;2023-07-28T12:31:36;3.45;;;1.50;;
26578;SDS011;14227;47.674;19.320;2023-07-28T12:34:02;5.38;;;1.98;;
26578;SDS011;14227;47.674;19.320;2023-07-28T12:36:28;1.83;;;1.45;;
26578;SDS011;14227;47.674;19.320;2023-07-28T12:38:55;3.92;;;1.50;;
26578;SDS011;14227;47.674;19.320;2023-07-28T12:41:21;7.57;;;1.60;;
26578;SDS011;14227;47.674;19.320;2023-07-28T12:43:46;1.52;;;1.42;;
26578;SDS011;14227;47.674;19.320;2023-07-28T12:46:12;3.65;;;1.50;;
26578;SDS011;14227;47.674;19.320;2023-07-28T12:48:38;2.35;;;1.70;;
26578;SDS011;14227;47.674;19.320;2023-07-28T12:51:04;2.70;;;1.70;;
26578;SDS011;14227;47.674;19.320;2023-07-28T12:53:30;4.38;;;1.67;;
26578;SDS011;14227;47.674;19.320;2023-07-28T12:55:55;1.90;;;1.65;;
26578;SDS011;14227;47.674;19.320;2023-07-28T12:58:21;2.50;;;1.50;;
26578;SDS011;14227;47.674;19.320;2023-07-28T13:00:47;5.72;;;1.58;;
26578;SDS011;14227;47.674;19.320;2023-07-28T13:03:12;3.58;;;1.60;;
26578;SDS011;14227;47.674;19.320;2023-07-28T13:05:38;21.42;;;2.40;;
26578;SDS011;14227;47.674;19.320;2023-07-28T13:08:04;5.32;;;1.70;;
26578;SDS011;14227;47.674;19.320;2023-07-28T13:10:29;4.10;;;1.73;;
26578;SDS011;14227;47.674;19.320;2023-07-28T13:12:55;5.80;;;1.63;;
26578;SDS011;14227;47.674;19.320;2023-07-28T13:15:21;6.05;;;1.60;;
26578;SDS011;14227;47.674;19.320;2023-07-28T13:17:46;2.30;;;1.95;;
26578;SDS011;14227;47.674;19.320;2023-07-28T13:20:13;2.15;;;1.80;;
26578;SDS011;14227;47.674;19.320;2023-07-28T13:22:39;9.70;;;2.42;;
26578;SDS011;14227;47.674;19.320;2023-07-28T13:25:04;7.55;;;1.77;;
26578;SDS011;14227;47.674;19.320;2023-07-28T13:27:30;5.22;;;1.70;;
26578;SDS011;14227;47.674;19.320;2023-07-28T13:29:56;3.22;;;1.58;;
26578;SDS011;14227;47.674;19.320;2023-07-28T13:32:23;4.00;;;2.17;;
26578;SDS011;14227;47.674;19.320;2023-07-28T13:34:51;4.72;;;2.08;;
26578;SDS011;14227;47.674;19.320;2023-07-28T13:37:20;5.38;;;1.88;;
26578;SDS011;14227;47.674;19.320;2023-07-28T13:39:46;7.50;;;2.15;;
26578;SDS011;14227;47.674;19.320;2023-07-28T13:42:11;10.23;;;1.75;;
26578;SDS011;14227;47.674;19.320;2023-07-28T13:44:39;5.60;;;2.00;;
26578;SDS011;14227;47.674;19.320;2023-07-28T13:47:05;2.83;;;1.60;;
26578;SDS011;14227;47.674;19.320;2023-07-28T13:49:30;3.28;;;2.03;;
26578;SDS011;14227;47.674;19.320;2023-07-28T13:52:00;3.40;;;2.00;;
26578;SDS011;14227;47.674;19.320;2023-07-28T13:54:26;5.72;;;1.75;;
26578;SDS011;14227;47.674;19.320;2023-07-28T13:56:52;6.10;;;1.67;;
26578;SDS011;14227;47.674;19.320;2023-07-28T13:59:18;2.95;;;1.67;;
26578;SDS011;14227;47.674;19.320;2023-07-28T14:01:44;4.88;;;2.10;;
26578;SDS011;14227;47.674;19.320;2023-07-28T14:04:09;2.53;;;1.80;;
26578;SDS011;14227;47.674;19.320;2023-07-28T14:06:35;3.03;;;2.00;;
26578;SDS011;14227;47.674;19.320;2023-07-28T14:09:01;3.70;;;1.80;;
26578;SDS011;14227;47.674;19.320;2023-07-28T14:11:26;3.90;;;1.90;;
26578;SDS011;14227;47.674;19.320;2023-07-28T14:13:52;4.57;;;1.65;;
26578;SDS011;14227;47.674;19.320;2023-07-28T14:16:18;2.90;;;1.40;;
26578;SDS011;14227;47.674;19.320;2023-07-28T14:18:43;9.38;;;2.05;;
26578;SDS011;14227;47.674;19.320;2023-07-28T14:21:12;2.92;;;1.88;;
26578;SDS011;14227;47.674;19.320;2023-07-28T14:23:38;8.35;;;1.73;;
26578;SDS011;14227;47.674;19.320;2023-07-28T14:26:04;5.15;;;1.77;;
26578;SDS011;14227;47.674;19.320;2023-07-28T14:28:30;3.42;;;1.50;;
26578;SDS011;14227;47.674;19.320;2023-07-28T14:30:55;10.00;;;1.75;;
26578;SDS011;14227;47.674;19.320;2023-07-28T14:33:21;6.15;;;1.50;;
26578;SDS011;14227;47.674;19.320;2023-07-28T14:35:48;6.63;;;1.98;;
26578;SDS011;14227;47.674;19.320;2023-07-28T14:38:14;3.72;;;1.83;;
26578;SDS011;14227;47.674;19.320;2023-07-28T14:40:40;4.15;;;1.80;;
26578;SDS011;14227;47.674;19.320;2023-07-28T14:43:06;6.60;;;1.88;;